Historique des mesures à Cassis (13260), France
Quotidien Résumé Mai 21, 2017 Unités:  US    Métrique   Métrique/US
« Précédent (Jour)
Suivant (Jour) »
Quotidien Hebdomadaire Mensuel Annuel Période au choix
  Maximum: Minimum: Moyenne:
Température: 32 °F 58.1 °F 66 °F
Point de rosée: 32 °F 39.2 °F 46 °F
Humidité: Humidity % 37 % 46 %
Vitesse du vent: WindSpeedKMH mph 0.0 mph 3.1 mph
Rafales: WindSpeedGustKMH mph - -
Vent:- - SE
Pression: 0 in 30 in -
Précipitations: 0 in    
Historical Graphs
 
 
Mesures pour : Mai 21, 2017
Heure Temperature Point de rosée Pression Vent Vitesse du vent Rafales Humidité Pluie (par heure) Conditions
32 °F 32 °F 0 in Calm     Humidity % 0 in SoftwareType W/m2
00:10 64.8 °F 39.2 °F 30 in NW 15.1 mph 24.1 mph 39 % 0 in open2300-1.11 W/m2
01:10 63.3 °F 39.7 °F 30 in North 7.2 mph 10.1 mph 42 % 0 in open2300-1.11 W/m2
02:10 61.5 °F 41 °F 30 in NNW 12.2 mph 12.2 mph 47 % 0 in open2300-1.11 W/m2
03:10 60.4 °F 40.6 °F 30 in North 2.1 mph 4.7 mph 48 % 0 in open2300-1.11 W/m2
04:10 59 °F 41.4 °F 30 in NNE 3.5 mph 5.8 mph 52 % 0 in open2300-1.11 W/m2
05:10 59 °F 40.8 °F 30 in Calm     51 % 0 in open2300-1.11 W/m2
06:10 58.1 °F 40.6 °F 30 in NNE 2.1 mph 2.1 mph 52 % 0 in open2300-1.11 W/m2
07:11 59.4 °F 41.2 °F 30 in North 2.6 mph 3.5 mph 51 % 0 in open2300-1.11 W/m2
08:10 66.9 °F 45.3 °F 30 in NNE 2.6 mph 6.4 mph 46 % 0 in open2300-1.11 W/m2
09:10 64.9 °F 44.8 °F 30 in Calm     48 % 0 in open2300-1.11 W/m2
10:10 66.4 °F 45.5 °F 30 in SE 5.8 mph 7.6 mph 47 % 0 in open2300-1.11 W/m2
11:10 73.9 °F 48.2 °F 30 in SSE 6.4 mph 6.4 mph 40 % 0 in open2300-1.11 W/m2
12:10 76.5 °F 48.9 °F 30.1 in SE 1.8 mph 2.1 mph 38 % 0 in open2300-1.11 W/m2
14:10 77.5 °F 49.1 °F 30 in Calm   9.3 mph 37 % 0 in open2300-1.11 W/m2
15:10 76.3 °F 50.9 °F 30 in SW 4.7 mph 6.1 mph 41 % 0 in open2300-1.11 W/m2
16:11 75.6 °F 52 °F 30 in Calm   7.2 mph 44 % 0 in open2300-1.11 W/m2
17:10 74.8 °F 53.2 °F 30 in SSW 7.6 mph 8.7 mph 47 % 0 in open2300-1.11 W/m2
18:10 73.8 °F 54 °F 30 in Calm   6.8 mph 50 % 0 in open2300-1.11 W/m2
19:10 72.5 °F 53.8 °F 30 in SSE 1.4 mph 3.2 mph 52 % 0 in open2300-1.11 W/m2
20:10 71.4 °F 52.3 °F 30 in Calm   3.2 mph 51 % 0 in open2300-1.11 W/m2
21:10 68.2 °F 51.8 °F 30 in Calm     56 % 0 in open2300-1.11 W/m2
22:10 65.8 °F 50.7 °F 30 in Calm     58 % 0 in open2300-1.11 W/m2
23:10 63.7 °F 49.5 °F 30 in Calm     60 % 0 in open2300-1.11 W/m2
Observations météo à CASSIS
WU-History script by Weather Underground - 1 mb